createdAt,value
2022-08-22T00:03:03.564Z,1.52
2022-08-22T00:27:51.970Z,1.98
2022-08-22T00:30:19.319Z,1.40
2022-08-22T00:32:53.298Z,1.83
2022-08-22T00:35:26.719Z,1.50
2022-08-22T00:38:16.385Z,2.30
2022-08-22T00:57:47.234Z,2.47
2022-08-22T01:16:56.060Z,2.58
2022-08-22T01:22:39.136Z,1.77
2022-08-22T01:25:45.504Z,1.75
2022-08-22T01:28:53.353Z,1.73
2022-08-22T01:47:53.723Z,3.08
2022-08-22T01:50:45.716Z,2.97
2022-08-22T01:56:12.956Z,1.75
2022-08-22T01:58:53.786Z,2.08
2022-08-22T02:04:20.101Z,2.50
2022-08-22T02:07:31.747Z,2.00
2022-08-22T02:15:47.499Z,1.90
2022-08-22T02:18:23.179Z,1.92
2022-08-22T02:21:06.422Z,2.20
2022-08-22T02:31:41.147Z,1.58
2022-08-22T02:34:24.883Z,1.48
2022-08-22T02:37:07.581Z,2.08
2022-08-22T02:42:38.026Z,2.17
2022-08-22T02:48:15.089Z,3.95
2022-08-22T02:50:59.015Z,3.30
2022-08-22T02:53:44.494Z,3.65
2022-08-22T02:56:18.687Z,3.83
2022-08-22T02:59:10.102Z,4.22
2022-08-22T03:01:42.005Z,3.95
2022-08-22T03:07:32.062Z,2.10
2022-08-22T03:23:13.435Z,2.75
2022-08-22T03:25:51.350Z,3.33
2022-08-22T03:28:26.873Z,3.42
2022-08-22T03:31:12.033Z,3.42
2022-08-22T03:33:38.678Z,3.47
2022-08-22T04:14:07.110Z,3.22
2022-08-22T04:17:14.153Z,2.97
2022-08-22T04:27:53.271Z,3.85
2022-08-22T04:35:43.011Z,3.22
2022-08-22T04:41:04.371Z,3.53
2022-08-22T04:43:42.463Z,2.97
2022-08-22T04:51:32.109Z,2.63
2022-08-22T04:54:16.878Z,2.92
2022-08-22T04:57:08.345Z,2.80
2022-08-22T04:59:36.051Z,2.95
2022-08-22T05:02:08.173Z,2.30
2022-08-22T05:04:46.506Z,2.90
2022-08-22T05:07:19.785Z,3.00
2022-08-22T05:09:53.817Z,3.13
2022-08-22T05:12:31.097Z,2.17
2022-08-22T05:15:05.873Z,2.63
2022-08-22T05:17:38.707Z,2.10
2022-08-22T05:20:12.412Z,2.33
2022-08-22T05:22:45.763Z,2.70
2022-08-22T05:25:18.824Z,2.67
2022-08-22T05:27:51.262Z,2.28
2022-08-22T05:30:28.159Z,2.58
2022-08-22T05:33:32.807Z,2.20
2022-08-22T05:36:07.108Z,2.67
2022-08-22T05:38:41.342Z,2.95
2022-08-22T05:41:12.105Z,3.13
2022-08-22T05:43:43.381Z,2.78
2022-08-22T05:46:19.723Z,2.60
2022-08-22T05:48:57.393Z,2.85
2022-08-22T05:51:35.746Z,2.90
2022-08-22T05:54:14.486Z,3.40
2022-08-22T05:56:47.567Z,2.53
2022-08-22T05:59:23.859Z,2.88
2022-08-22T06:02:16.855Z,3.05
2022-08-22T06:05:03.323Z,2.90
2022-08-22T06:10:17.688Z,3.45
2022-08-22T06:12:55.714Z,2.72
2022-08-22T06:15:33.492Z,3.50
2022-08-22T06:18:05.504Z,3.15
2022-08-22T06:20:39.740Z,3.45
2022-08-22T06:23:08.447Z,2.75
2022-08-22T06:25:38.969Z,3.85
2022-08-22T06:28:10.004Z,3.47
2022-08-22T06:30:39.613Z,3.28
2022-08-22T06:33:12.856Z,3.88
2022-08-22T06:36:04.153Z,3.40
2022-08-22T06:38:34.867Z,3.33
2022-08-22T06:41:06.936Z,3.70
2022-08-22T06:43:39.639Z,3.55
2022-08-22T06:46:07.505Z,3.83
2022-08-22T06:48:35.716Z,3.60
2022-08-22T06:51:06.407Z,4.00
2022-08-22T06:53:48.257Z,3.55
2022-08-22T06:56:22.850Z,3.78
2022-08-22T06:58:54.220Z,3.20
2022-08-22T07:01:26.314Z,3.05
2022-08-22T07:03:58.548Z,2.70
2022-08-22T07:06:50.259Z,2.95
2022-08-22T07:09:24.712Z,2.63
2022-08-22T07:11:53.455Z,2.83
2022-08-22T07:14:28.690Z,2.40
2022-08-22T07:17:00.660Z,2.67
2022-08-22T07:22:14.928Z,2.10
2022-08-22T07:24:51.628Z,1.83
2022-08-22T07:30:27.660Z,2.20
2022-08-22T07:33:25.952Z,2.28
2022-08-22T07:35:59.113Z,2.08
2022-08-22T07:38:42.958Z,1.42
2022-08-22T07:44:03.349Z,2.47
2022-08-22T07:46:37.137Z,2.33
2022-08-22T07:49:22.311Z,3.00
2022-08-22T07:51:54.558Z,2.65
2022-08-22T07:54:27.759Z,2.85
2022-08-22T07:59:33.309Z,1.95
2022-08-22T08:02:02.113Z,1.48
2022-08-22T08:04:36.871Z,1.38
2022-08-22T08:07:08.602Z,1.42
2022-08-22T08:09:41.163Z,1.98
2022-08-22T08:12:11.117Z,0.85
2022-08-22T08:14:42.064Z,1.08
2022-08-22T08:17:22.022Z,1.35
2022-08-22T08:19:50.923Z,1.20
2022-08-22T08:22:25.674Z,1.60
2022-08-22T08:24:56.174Z,1.10
2022-08-22T08:27:50.271Z,1.35
2022-08-22T08:30:22.114Z,1.40
2022-08-22T08:32:59.517Z,1.30
2022-08-22T08:36:02.296Z,1.33
2022-08-22T08:38:39.917Z,1.35
2022-08-22T08:46:55.124Z,2.90
2022-08-22T08:52:42.264Z,1.20
2022-08-22T09:00:30.392Z,1.42
2022-08-22T09:08:42.263Z,2.25
2022-08-22T09:11:48.934Z,2.42
2022-08-22T09:56:15.531Z,1.88
2022-08-22T10:06:51.515Z,1.27
2022-08-22T10:09:31.548Z,1.55
2022-08-22T10:12:24.811Z,1.50
2022-08-22T10:17:34.122Z,2.70
2022-08-22T10:20:23.191Z,1.95
2022-08-22T10:25:42.148Z,1.48
2022-08-22T10:33:39.945Z,1.90
2022-08-22T10:36:11.981Z,1.25
2022-08-22T10:49:29.311Z,1.30
2022-08-22T10:52:14.776Z,0.93
2022-08-22T10:54:50.684Z,1.95
2022-08-22T11:02:39.372Z,2.60
2022-08-22T11:05:32.549Z,1.95
2022-08-22T11:13:27.954Z,1.48
2022-08-22T11:27:01.040Z,1.88
2022-08-22T11:30:07.468Z,1.95
2022-08-22T11:33:10.097Z,1.85
2022-08-22T11:35:53.802Z,1.70
2022-08-22T11:41:14.505Z,0.95
2022-08-22T11:43:57.627Z,1.00
2022-08-22T11:57:11.794Z,0.82
2022-08-22T12:02:21.501Z,1.00
2022-08-22T12:04:55.573Z,0.88
2022-08-22T12:10:13.789Z,1.05
2022-08-22T12:15:39.570Z,2.20
2022-08-22T12:32:15.084Z,0.40
2022-08-22T12:37:29.952Z,1.30
2022-08-22T12:46:13.200Z,0.30
2022-08-22T12:54:27.977Z,0.52
2022-08-22T12:57:28.341Z,0.75
2022-08-22T13:00:09.778Z,1.20
2022-08-22T13:02:39.801Z,0.73
2022-08-22T13:05:19.879Z,0.63
2022-08-22T13:07:54.555Z,0.50
2022-08-22T13:10:51.244Z,0.73
2022-08-22T13:24:16.847Z,1.60
2022-08-22T13:26:56.373Z,1.40
2022-08-22T13:29:39.594Z,1.67
2022-08-22T13:32:20.809Z,1.77
2022-08-22T13:34:55.682Z,1.77
2022-08-22T13:37:28.976Z,1.70
2022-08-22T13:40:01.856Z,2.60
2022-08-22T13:42:32.306Z,2.28
2022-08-22T13:45:04.985Z,1.92
2022-08-22T13:47:35.897Z,2.45
2022-08-22T13:50:14.842Z,3.03
2022-08-22T13:52:52.289Z,2.28
2022-08-22T13:58:04.708Z,1.30
2022-08-22T14:03:26.152Z,1.67
2022-08-22T14:06:07.172Z,1.42
2022-08-22T14:08:46.558Z,1.15
2022-08-22T14:11:29.079Z,1.77
2022-08-22T14:14:00.103Z,0.90
2022-08-22T14:19:13.533Z,0.60
2022-08-22T14:29:53.390Z,1.73
2022-08-22T14:35:02.905Z,0.63
2022-08-22T14:37:35.200Z,0.85
2022-08-22T14:40:13.400Z,0.73
2022-08-22T14:45:46.428Z,1.55
2022-08-22T14:48:31.708Z,1.08
2022-08-22T14:51:04.328Z,1.02
2022-08-22T14:53:34.157Z,0.85
2022-08-22T14:58:49.510Z,2.05
2022-08-22T15:01:21.679Z,1.73
2022-08-22T15:03:55.851Z,2.08
2022-08-22T15:06:35.361Z,1.73
2022-08-22T15:09:07.938Z,1.85
2022-08-22T15:11:36.961Z,1.70
2022-08-22T15:16:46.399Z,0.93
2022-08-22T15:22:38.999Z,0.80
2022-08-22T15:27:47.944Z,1.45
2022-08-22T15:30:20.597Z,1.20
2022-08-22T15:32:49.126Z,1.65
2022-08-22T15:35:29.916Z,1.50
2022-08-22T15:38:04.372Z,1.58
2022-08-22T15:45:50.810Z,2.03
2022-08-22T15:48:38.974Z,1.63
2022-08-22T15:51:10.530Z,1.80
2022-08-22T15:56:27.426Z,1.38
2022-08-22T16:28:36.063Z,1.98
2022-08-22T16:31:32.031Z,1.73
2022-08-22T17:00:38.709Z,1.17
2022-08-22T17:08:57.940Z,1.10
2022-08-22T17:22:58.242Z,1.77
2022-08-22T17:42:02.978Z,1.17
2022-08-22T17:55:05.574Z,1.42
2022-08-22T17:57:44.319Z,1.45
2022-08-22T18:00:30.729Z,1.70
2022-08-22T18:08:37.861Z,3.47
2022-08-22T18:11:13.440Z,2.55
2022-08-22T18:13:56.446Z,2.38
2022-08-22T18:16:46.370Z,2.90
2022-08-22T18:27:40.311Z,1.88
2022-08-22T18:53:54.255Z,1.90
2022-08-22T18:56:58.368Z,2.22
2022-08-22T19:05:16.560Z,2.08
2022-08-22T19:08:22.930Z,2.45
2022-08-22T19:16:43.258Z,1.67
2022-08-22T19:19:17.848Z,1.40
2022-08-22T19:22:24.613Z,1.50
2022-08-22T19:25:15.418Z,1.30
2022-08-22T19:27:45.539Z,1.67
2022-08-22T19:41:06.847Z,1.00
2022-08-22T19:43:37.937Z,0.82
2022-08-22T19:46:08.773Z,1.00
2022-08-22T19:48:47.923Z,0.63
2022-08-22T20:04:48.835Z,0.70
2022-08-22T20:15:32.869Z,1.77
2022-08-22T20:21:02.464Z,2.53
2022-08-22T20:25:58.695Z,2.22
2022-08-22T20:31:10.886Z,0.95
2022-08-22T20:33:42.887Z,0.70
2022-08-22T20:36:28.854Z,1.67
2022-08-22T20:39:09.220Z,1.00
2022-08-22T20:41:49.905Z,1.00
2022-08-22T20:47:04.476Z,1.05
2022-08-22T20:49:37.750Z,1.63
2022-08-22T20:52:08.238Z,0.75
2022-08-22T20:54:38.161Z,0.73
2022-08-22T20:59:53.825Z,1.55
2022-08-22T21:05:00.600Z,2.00
2022-08-22T21:10:43.776Z,1.40
2022-08-22T21:16:14.362Z,0.80
2022-08-22T21:18:45.946Z,0.93
2022-08-22T21:23:51.399Z,2.72
2022-08-22T21:31:44.642Z,1.25
2022-08-22T21:34:16.148Z,1.23
2022-08-22T21:36:43.532Z,1.90
2022-08-22T21:39:19.561Z,2.05
2022-08-22T21:41:52.858Z,1.20
2022-08-22T21:44:38.724Z,1.35
2022-08-22T21:50:25.601Z,1.80
2022-08-22T21:55:34.404Z,1.50
2022-08-22T22:03:36.888Z,1.77
2022-08-22T22:06:06.254Z,2.33
2022-08-22T22:08:33.759Z,1.58
2022-08-22T22:11:06.049Z,2.03
2022-08-22T22:13:34.984Z,1.67
2022-08-22T22:16:01.657Z,1.48
2022-08-22T22:18:32.903Z,1.55
2022-08-22T22:21:00.001Z,1.40
2022-08-22T22:23:27.304Z,1.98
2022-08-22T22:25:56.556Z,1.48
2022-08-22T22:28:29.220Z,1.67
2022-08-22T22:30:56.128Z,1.30
2022-08-22T22:33:26.051Z,1.40
2022-08-22T22:35:55.548Z,1.63
2022-08-22T22:43:18.137Z,1.38
2022-08-22T22:45:44.970Z,1.45
2022-08-22T22:48:11.525Z,1.50
2022-08-22T22:50:44.266Z,1.35
2022-08-22T22:53:11.789Z,1.40
2022-08-22T22:56:00.201Z,1.50
2022-08-22T22:58:28.227Z,1.40
2022-08-22T23:00:56.088Z,2.13
2022-08-22T23:03:22.931Z,1.35
2022-08-22T23:05:49.510Z,1.90
2022-08-22T23:08:16.120Z,1.42
2022-08-22T23:10:42.740Z,1.42
2022-08-22T23:13:09.409Z,1.15
2022-08-22T23:15:37.062Z,0.98
2022-08-22T23:18:03.745Z,1.30
2022-08-22T23:20:30.364Z,1.10
2022-08-22T23:22:56.993Z,2.53
2022-08-22T23:25:23.572Z,1.73
2022-08-22T23:27:52.516Z,1.23
2022-08-22T23:30:20.117Z,1.10
2022-08-22T23:32:46.783Z,1.13
2022-08-22T23:35:13.596Z,1.73
2022-08-22T23:37:40.219Z,1.65
2022-08-22T23:40:08.668Z,1.00
2022-08-22T23:42:35.283Z,1.27
2022-08-22T23:45:01.894Z,1.20
2022-08-22T23:47:28.485Z,1.38
2022-08-22T23:49:55.068Z,1.10
2022-08-22T23:52:21.757Z,1.70
2022-08-22T23:54:48.356Z,1.55
2022-08-22T23:57:21.084Z,1.40
2022-08-22T23:59:57.675Z,1.48
